Time;durP1;ratioP1;P1;durP2;ratioP2;P2;SDS_P1;SDS_P2;PMS_P1;PMS_P2;Temp;Humidity;BMP_temperature;BMP_pressure;BME280_temperature;BME280_humidity;BME280_pressure;Samples;Min_cycle;Max_cycle;Signal;HPM_P1;HPM_P2
2021/12/11 00:00:36;;;;;;;88.20;25.00;;;;;;;;;;5141162;28;19919;-67
2021/12/11 00:03:07;;;;;;;121.75;29.00;;;;;;;;;;5122618;28;20047;-68
2021/12/11 00:05:35;;;;;;;82.32;24.40;;;;;;;;;;5133571;28;20051;-67
2021/12/11 00:08:01;;;;;;;59.83;22.73;;;;;;;;;;5125674;28;20088;-67
2021/12/11 00:10:36;;;;;;;54.28;22.35;;;;;;;;;;5141304;28;20031;-69
2021/12/11 00:13:06;;;;;;;60.35;22.75;;;;;;;;;;5132386;28;20040;-67
2021/12/11 00:15:34;;;;;;;51.13;21.98;;;;;;;;;;5134416;28;20042;-67
2021/12/11 00:18:01;;;;;;;46.50;21.80;;;;;;;;;;5127562;28;20035;-66
2021/12/11 00:20:29;;;;;;;45.00;21.10;;;;;;;;;;5137048;28;20044;-66
2021/12/11 00:22:56;;;;;;;51.97;20.47;;;;;;;;;;5135866;28;20042;-66
2021/12/11 00:25:22;;;;;;;53.05;20.88;;;;;;;;;;5134739;28;20305;-68
2021/12/11 00:27:49;;;;;;;366.38;71.82;;;;;;;;;;5146316;27;20078;-66
2021/12/11 00:30:26;;;;;;;227.13;46.53;;;;;;;;;;5120149;28;20042;-68
2021/12/11 00:33:00;;;;;;;60.80;20.15;;;;;;;;;;5129983;28;20032;-68
2021/12/11 00:35:26;;;;;;;101.50;29.00;;;;;;;;;;5139068;28;20051;-68
2021/12/11 00:37:52;;;;;;;79.15;23.58;;;;;;;;;;5118283;28;20027;-66
2021/12/11 00:40:23;;;;;;;48.35;19.73;;;;;;;;;;5123026;28;20042;-67
2021/12/11 00:42:51;;;;;;;61.55;22.20;;;;;;;;;;5130754;28;20085;-67
2021/12/11 00:45:19;;;;;;;51.55;20.73;;;;;;;;;;5118294;28;20100;-68
2021/12/11 00:47:51;;;;;;;46.00;19.48;;;;;;;;;;5133959;28;20032;-66
2021/12/11 00:50:18;;;;;;;43.92;20.15;;;;;;;;;;5110514;28;20064;-68
2021/12/11 00:52:48;;;;;;;52.10;21.25;;;;;;;;;;5130775;28;20035;-68
2021/12/11 00:55:20;;;;;;;55.75;23.63;;;;;;;;;;5155156;27;20055;-66
2021/12/11 00:57:46;;;;;;;50.85;21.33;;;;;;;;;;5168882;27;20046;-67
2021/12/11 01:00:14;;;;;;;53.33;22.15;;;;;;;;;;5168741;27;20019;-67
2021/12/11 01:02:40;;;;;;;52.73;21.30;;;;;;;;;;5165857;27;20035;-66
2021/12/11 01:05:09;;;;;;;50.70;21.02;;;;;;;;;;5159721;27;20312;-67
2021/12/11 01:07:35;;;;;;;50.33;21.30;;;;;;;;;;5157312;27;20067;-66
2021/12/11 01:10:05;;;;;;;49.03;21.20;;;;;;;;;;5179033;27;20035;-65
2021/12/11 01:12:44;;;;;;;48.28;20.58;;;;;;;;;;5162627;27;20043;-66
2021/12/11 01:15:13;;;;;;;51.20;20.58;;;;;;;;;;5173837;27;20095;-67
2021/12/11 01:17:58;;;;;;;49.13;19.80;;;;;;;;;;5159563;27;20039;-68
2021/12/11 01:20:38;;;;;;;51.20;19.42;;;;;;;;;;5160181;27;20087;-66
2021/12/11 01:23:15;;;;;;;46.17;19.40;;;;;;;;;;5153689;27;20076;-66
2021/12/11 01:25:42;;;;;;;44.70;19.27;;;;;;;;;;5159672;27;20050;-67
2021/12/11 01:28:08;;;;;;;47.10;19.70;;;;;;;;;;5169843;27;20085;-67
2021/12/11 01:30:36;;;;;;;58.58;23.55;;;;;;;;;;5169696;27;20052;-68
2021/12/11 01:33:03;;;;;;;52.30;21.05;;;;;;;;;;5141214;27;20035;-68
2021/12/11 01:35:29;;;;;;;50.95;20.90;;;;;;;;;;5178063;27;20050;-67
2021/12/11 01:38:03;;;;;;;43.47;19.27;;;;;;;;;;5153595;27;20038;-66
2021/12/11 01:40:31;;;;;;;52.88;20.30;;;;;;;;;;5142127;27;20051;-67
2021/12/11 01:42:58;;;;;;;55.90;23.67;;;;;;;;;;5162038;27;20047;-68
2021/12/11 01:45:24;;;;;;;52.03;22.02;;;;;;;;;;5159731;27;20066;-66
2021/12/11 01:47:50;;;;;;;49.05;20.45;;;;;;;;;;5177512;27;20035;-66
2021/12/11 01:50:20;;;;;;;44.42;20.40;;;;;;;;;;5170222;27;20099;-66
2021/12/11 01:52:48;;;;;;;45.08;19.23;;;;;;;;;;5138316;27;20079;-65
2021/12/11 01:55:21;;;;;;;44.28;18.98;;;;;;;;;;5138621;27;20051;-64
2021/12/11 01:57:51;;;;;;;35.30;17.40;;;;;;;;;;5154159;27;20030;-66
2021/12/11 02:00:21;;;;;;;39.33;17.67;;;;;;;;;;5151731;27;20038;-66
2021/12/11 02:02:49;;;;;;;38.03;17.85;;;;;;;;;;5147618;27;20029;-67
2021/12/11 02:05:19;;;;;;;42.75;18.92;;;;;;;;;;5171665;27;20027;-65
2021/12/11 02:07:47;;;;;;;37.17;16.95;;;;;;;;;;5158126;27;20027;-65
2021/12/11 02:10:19;;;;;;;40.35;18.65;;;;;;;;;;5157158;27;20060;-65
2021/12/11 02:12:45;;;;;;;32.92;16.23;;;;;;;;;;5144785;27;20043;-66
2021/12/11 02:15:14;;;;;;;37.50;17.30;;;;;;;;;;5172732;27;20118;-65
2021/12/11 02:17:40;;;;;;;;;;;;;;;;;;5161229;27;20066;-65
2021/12/11 02:20:08;;;;;;;41.03;18.33;;;;;;;;;;5178375;27;19919;-66
2021/12/11 02:22:38;;;;;;;42.67;19.17;;;;;;;;;;5149187;27;20036;-65
2021/12/11 02:25:07;;;;;;;43.80;19.08;;;;;;;;;;5159137;27;20035;-66
2021/12/11 02:27:36;;;;;;;32.00;15.52;;;;;;;;;;5170935;27;20037;-66
2021/12/11 02:30:18;;;;;;;49.13;18.58;;;;;;;;;;5161232;27;20035;-67
2021/12/11 02:32:48;;;;;;;50.03;20.58;;;;;;;;;;5169776;27;20049;-66
2021/12/11 02:35:38;;;;;;;43.35;19.38;;;;;;;;;;5152763;27;20067;-67
2021/12/11 02:38:09;;;;;;;41.58;18.67;;;;;;;;;;5166817;27;20049;-65
2021/12/11 02:40:43;;;;;;;46.72;19.90;;;;;;;;;;5164893;27;20074;-66
2021/12/11 02:43:16;;;;;;;60.60;21.65;;;;;;;;;;5137896;27;20047;-67
2021/12/11 02:45:48;;;;;;;38.78;17.13;;;;;;;;;;5171947;27;20077;-66
2021/12/11 02:48:17;;;;;;;39.35;15.80;;;;;;;;;;5159763;27;20469;-66
2021/12/11 02:50:51;;;;;;;36.40;16.42;;;;;;;;;;5162068;27;20067;-66
2021/12/11 02:53:20;;;;;;;48.08;18.65;;;;;;;;;;5166086;27;20027;-66
2021/12/11 02:55:46;;;;;;;46.67;19.30;;;;;;;;;;5160212;27;20047;-65
2021/12/11 02:58:22;;;;;;;44.00;18.30;;;;;;;;;;5174515;27;20068;-66
2021/12/11 03:00:57;;;;;;;43.13;18.70;;;;;;;;;;5169869;27;20088;-66
2021/12/11 03:03:27;;;;;;;45.58;19.40;;;;;;;;;;5161044;27;20044;-65
2021/12/11 03:06:34;;;;;;;47.17;18.55;;;;;;;;;;5158676;27;20057;-66
2021/12/11 03:08:46;;;;;;;42.90;17.23;;;;;;;;;;5170849;27;20071;-66
2021/12/11 03:11:14;;;;;;;38.25;18.27;;;;;;;;;;5182366;27;20047;-66
2021/12/11 03:13:40;;;;;;;35.72;16.05;;;;;;;;;;5178541;27;20035;-66
2021/12/11 03:16:08;;;;;;;35.35;16.38;;;;;;;;;;5163860;27;20046;-66
2021/12/11 03:18:35;;;;;;;41.97;17.83;;;;;;;;;;5159268;27;20042;-66
2021/12/11 03:21:01;;;;;;;44.25;18.50;;;;;;;;;;5148115;27;20079;-66
2021/12/11 03:23:27;;;;;;;56.50;20.88;;;;;;;;;;5146683;27;20047;-66
2021/12/11 03:25:53;;;;;;;57.83;21.52;;;;;;;;;;5161024;27;20039;-66
2021/12/11 03:28:20;;;;;;;46.60;20.13;;;;;;;;;;5157335;27;20030;-66
2021/12/11 03:30:52;;;;;;;41.58;18.08;;;;;;;;;;5174294;27;20027;-65
2021/12/11 03:33:19;;;;;;;43.10;19.58;;;;;;;;;;5158282;27;20077;-65
2021/12/11 03:35:46;;;;;;;40.60;17.00;;;;;;;;;;5162888;27;20240;-66
2021/12/11 03:38:13;;;;;;;39.00;17.42;;;;;;;;;;5174464;27;20065;-66
2021/12/11 03:40:39;;;;;;;35.40;16.65;;;;;;;;;;5161729;27;20102;-66
2021/12/11 03:43:07;;;;;;;37.83;17.13;;;;;;;;;;5145352;27;20129;-65
2021/12/11 03:45:35;;;;;;;44.78;19.50;;;;;;;;;;5156877;27;20031;-66
2021/12/11 03:48:17;;;;;;;47.25;18.85;;;;;;;;;;5158679;27;20049;-66
2021/12/11 03:50:43;;;;;;;179.32;35.05;;;;;;;;;;5175089;27;20046;-66
2021/12/11 03:53:11;;;;;;;107.50;26.80;;;;;;;;;;5171102;27;20035;-66
2021/12/11 03:55:42;;;;;;;75.00;22.58;;;;;;;;;;5156683;27;20047;-65
2021/12/11 03:58:08;;;;;;;45.28;20.25;;;;;;;;;;5156450;27;20059;-66
2021/12/11 04:00:37;;;;;;;59.25;21.38;;;;;;;;;;5158171;27;20045;-65
2021/12/11 04:03:06;;;;;;;48.10;19.13;;;;;;;;;;5153926;27;20047;-65
2021/12/11 04:05:32;;;;;;;;;;;;;;;;;;5156478;27;20126;-66
2021/12/11 04:07:58;;;;;;;38.88;16.80;;;;;;;;;;5175438;27;19923;-65
2021/12/11 04:10:27;;;;;;;42.67;18.75;;;;;;;;;;5161638;27;20046;-66
2021/12/11 04:12:53;;;;;;;46.90;19.50;;;;;;;;;;5156695;27;20100;-66
2021/12/11 04:15:19;;;;;;;43.88;18.63;;;;;;;;;;5176861;27;20035;-66
2021/12/11 04:17:45;;;;;;;42.00;18.65;;;;;;;;;;5166821;27;20027;-66
2021/12/11 04:20:18;;;;;;;50.28;21.58;;;;;;;;;;5157274;27;20036;-66
2021/12/11 04:22:44;;;;;;;48.92;21.02;;;;;;;;;;5153047;27;20058;-66
2021/12/11 04:25:12;;;;;;;46.65;19.60;;;;;;;;;;5158330;27;20064;-66
2021/12/11 04:27:38;;;;;;;45.43;19.30;;;;;;;;;;5156583;27;20080;-66
2021/12/11 04:30:08;;;;;;;50.95;20.80;;;;;;;;;;5167037;27;20307;-66
2021/12/11 04:32:35;;;;;;;84.05;24.55;;;;;;;;;;5167746;27;20041;-67
2021/12/11 04:35:02;;;;;;;81.40;23.88;;;;;;;;;;5178041;27;20046;-66
2021/12/11 04:37:30;;;;;;;48.75;20.70;;;;;;;;;;5176042;27;20035;-67
2021/12/11 04:40:00;;;;;;;74.00;24.40;;;;;;;;;;5165719;27;20072;-67
2021/12/11 04:44:58;;;;;;;56.08;19.98;;;;;;;;;;5156410;27;20115;-67
2021/12/11 04:47:35;;;;;;;44.72;19.70;;;;;;;;;;5169227;27;20018;-68
2021/12/11 04:50:07;;;;;;;51.28;19.90;;;;;;;;;;5171812;27;20047;-67
2021/12/11 04:52:44;;;;;;;45.58;19.70;;;;;;;;;;5165290;27;20043;-68
2021/12/11 04:55:33;;;;;;;45.35;19.58;;;;;;;;;;5173633;27;20076;-67
2021/12/11 04:58:13;;;;;;;50.70;21.02;;;;;;;;;;5159889;27;20047;-67
2021/12/11 05:00:58;;;;;;;47.25;19.95;;;;;;;;;;5155004;27;20047;-66
2021/12/11 05:03:48;;;;;;;51.13;19.83;;;;;;;;;;5159848;27;20043;-66
2021/12/11 05:09:23;;;;;;;47.28;20.25;;;;;;;;;;5176607;27;20042;-66
2021/12/11 05:12:07;;;;;;;54.13;23.30;;;;;;;;;;5156762;27;20048;-66
2021/12/11 05:14:34;;;;;;;51.45;21.58;;;;;;;;;;5165736;27;20056;-66
2021/12/11 05:17:00;;;;;;;59.10;23.65;;;;;;;;;;5156215;27;20087;-66
2021/12/11 05:19:26;;;;;;;131.43;31.23;;;;;;;;;;5170025;27;20412;-66
2021/12/11 05:21:52;;;;;;;72.35;25.15;;;;;;;;;;5148036;27;20043;-66
2021/12/11 05:24:20;;;;;;;94.50;28.08;;;;;;;;;;5171530;27;20044;-66
2021/12/11 05:26:46;;;;;;;70.82;24.95;;;;;;;;;;5145340;27;20108;-66
2021/12/11 05:29:13;;;;;;;65.47;22.77;;;;;;;;;;5138089;27;20107;-66
2021/12/11 05:31:39;;;;;;;59.13;23.00;;;;;;;;;;5145760;27;20042;-66
2021/12/11 05:34:05;;;;;;;59.92;24.77;;;;;;;;;;5177541;27;20042;-66
2021/12/11 05:36:32;;;;;;;70.10;27.80;;;;;;;;;;5175874;27;20038;-66
2021/12/11 05:39:00;;;;;;;61.22;25.77;;;;;;;;;;5160909;27;20043;-66
2021/12/11 05:41:27;;;;;;;70.10;26.20;;;;;;;;;;5154045;27;20043;-66
2021/12/11 05:43:54;;;;;;;64.65;25.58;;;;;;;;;;5155494;27;20075;-66
2021/12/11 05:46:20;;;;;;;74.57;29.25;;;;;;;;;;5169689;27;20077;-66
2021/12/11 05:48:47;;;;;;;82.50;30.30;;;;;;;;;;5157150;27;20053;-68
2021/12/11 05:51:16;;;;;;;98.05;33.72;;;;;;;;;;5168599;27;20064;-66
2021/12/11 05:53:42;;;;;;;115.55;37.63;;;;;;;;;;5155485;27;20073;-66
2021/12/11 05:56:13;;;;;;;136.63;43.15;;;;;;;;;;5149061;27;20062;-66
2021/12/11 05:58:56;;;;;;;139.07;44.15;;;;;;;;;;5154540;27;20039;-66
2021/12/11 06:01:31;;;;;;;136.88;41.05;;;;;;;;;;5152088;27;20054;-66
2021/12/11 06:03:59;;;;;;;119.65;37.58;;;;;;;;;;5165490;27;20087;-65
2021/12/11 06:06:25;;;;;;;119.97;39.00;;;;;;;;;;5154045;27;20047;-65
2021/12/11 06:08:52;;;;;;;124.32;42.63;;;;;;;;;;5153838;27;20046;-67
2021/12/11 06:11:18;;;;;;;114.47;38.72;;;;;;;;;;5154487;27;20054;-66
2021/12/11 06:13:45;;;;;;;106.53;35.65;;;;;;;;;;5152632;27;20042;-66
2021/12/11 06:16:11;;;;;;;102.68;36.75;;;;;;;;;;5172569;27;20070;-66
2021/12/11 06:18:37;;;;;;;102.07;35.58;;;;;;;;;;5155807;27;20029;-66
2021/12/11 06:21:03;;;;;;;140.95;37.17;;;;;;;;;;5167277;27;20043;-66
2021/12/11 06:23:30;;;;;;;103.57;32.63;;;;;;;;;;5150581;27;20043;-66
2021/12/11 06:25:56;;;;;;;88.63;31.25;;;;;;;;;;5172497;27;20420;-66
2021/12/11 06:28:23;;;;;;;82.85;30.17;;;;;;;;;;5153361;27;20054;-67
2021/12/11 06:30:49;;;;;;;91.07;32.65;;;;;;;;;;5171788;27;20039;-66
2021/12/11 06:33:15;;;;;;;80.18;28.35;;;;;;;;;;5173378;27;20035;-66
2021/12/11 06:35:47;;;;;;;69.88;28.38;;;;;;;;;;5135853;27;20065;-65
2021/12/11 06:38:15;;;;;;;58.35;25.00;;;;;;;;;;5167853;27;20035;-66
2021/12/11 06:40:41;;;;;;;67.93;27.92;;;;;;;;;;5151443;27;20039;-68
2021/12/11 06:43:07;;;;;;;61.55;25.90;;;;;;;;;;5153252;27;20216;-66
2021/12/11 06:45:34;;;;;;;76.55;27.92;;;;;;;;;;5133760;28;20114;-66
2021/12/11 06:48:00;;;;;;;90.72;27.42;;;;;;;;;;5169470;27;20050;-66
2021/12/11 06:50:26;;;;;;;92.38;30.95;;;;;;;;;;5151262;27;20162;-67
2021/12/11 06:52:53;;;;;;;70.30;25.17;;;;;;;;;;5149064;27;20049;-65
2021/12/11 06:55:20;;;;;;;68.55;26.20;;;;;;;;;;5172202;27;20560;-65
2021/12/11 06:57:46;;;;;;;335.00;60.55;;;;;;;;;;5158979;27;20047;-66
2021/12/11 07:00:14;;;;;;;71.95;24.27;;;;;;;;;;5154207;27;20046;-66
2021/12/11 07:02:39;;;;;;;173.43;40.58;;;;;;;;;;5163198;27;20042;-66
2021/12/11 07:05:06;;;;;;;191.75;41.63;;;;;;;;;;5153159;27;20039;-65
2021/12/11 07:07:34;;;;;;;217.77;41.40;;;;;;;;;;5166346;27;20050;-65
2021/12/11 07:10:02;;;;;;;72.22;25.77;;;;;;;;;;5154410;27;20047;-68
2021/12/11 07:12:28;;;;;;;143.55;35.97;;;;;;;;;;5172524;27;20042;-67
2021/12/11 07:14:54;;;;;;;53.55;22.92;;;;;;;;;;5166938;27;20039;-65
2021/12/11 07:17:21;;;;;;;123.60;33.28;;;;;;;;;;5149146;27;20046;-65
2021/12/11 07:19:48;;;;;;;158.95;39.40;;;;;;;;;;5153807;27;20043;-65
2021/12/11 07:22:14;;;;;;;147.75;37.47;;;;;;;;;;5174900;27;20090;-65
2021/12/11 07:24:47;;;;;;;275.83;49.78;;;;;;;;;;5173275;27;20035;-66
2021/12/11 07:27:14;;;;;;;139.90;39.53;;;;;;;;;;5156015;27;20072;-65
2021/12/11 07:29:40;;;;;;;142.77;39.20;;;;;;;;;;5138303;28;20058;-65
2021/12/11 07:32:07;;;;;;;222.48;45.95;;;;;;;;;;5153651;27;20046;-65
2021/12/11 07:34:33;;;;;;;235.70;49.25;;;;;;;;;;5172753;27;20043;-65
2021/12/11 07:36:59;;;;;;;244.80;53.60;;;;;;;;;;5168479;27;20039;-65
2021/12/11 07:39:26;;;;;;;196.90;42.28;;;;;;;;;;5167798;27;20049;-65
2021/12/11 07:41:53;;;;;;;146.23;38.67;;;;;;;;;;5172709;27;20488;-65
2021/12/11 07:44:19;;;;;;;330.17;63.90;;;;;;;;;;5164185;27;20051;-65
2021/12/11 07:46:46;;;;;;;239.25;50.97;;;;;;;;;;5175020;27;20081;-65
2021/12/11 07:49:12;;;;;;;201.95;46.33;;;;;;;;;;5168376;27;20038;-65
2021/12/11 07:51:39;;;;;;;242.95;52.08;;;;;;;;;;5165672;27;20046;-64
2021/12/11 07:54:06;;;;;;;168.48;42.75;;;;;;;;;;5141093;27;20099;-64
2021/12/11 07:56:32;;;;;;;127.80;37.22;;;;;;;;;;5176582;27;20051;-64
2021/12/11 07:58:59;;;;;;;114.90;35.22;;;;;;;;;;5174602;27;20051;-65
2021/12/11 08:01:26;;;;;;;97.80;32.17;;;;;;;;;;5154372;27;20092;-65
2021/12/11 08:03:52;;;;;;;117.35;33.22;;;;;;;;;;5165836;27;20035;-65
2021/12/11 08:06:18;;;;;;;97.25;31.08;;;;;;;;;;5176610;27;20175;-66
2021/12/11 08:08:45;;;;;;;85.53;29.15;;;;;;;;;;5177543;27;20395;-65
2021/12/11 08:11:13;;;;;;;69.15;27.65;;;;;;;;;;5167380;27;20118;-65
2021/12/11 08:13:43;;;;;;;103.55;31.98;;;;;;;;;;5153762;27;20038;-65
2021/12/11 08:16:10;;;;;;;88.97;34.97;;;;;;;;;;5175935;27;20100;-65
2021/12/11 08:18:36;;;;;;;82.00;31.92;;;;;;;;;;5176682;27;20074;-65
2021/12/11 08:21:02;;;;;;;97.30;34.70;;;;;;;;;;5154171;27;20095;-64
2021/12/11 08:23:28;;;;;;;159.70;42.75;;;;;;;;;;5173461;27;20073;-65
2021/12/11 08:25:55;;;;;;;182.77;44.35;;;;;;;;;;5157701;27;20138;-64
2021/12/11 08:28:28;;;;;;;198.55;46.92;;;;;;;;;;5166922;27;20103;-65
2021/12/11 08:30:56;;;;;;;184.98;45.45;;;;;;;;;;5145112;27;20034;-65
2021/12/11 08:33:22;;;;;;;192.02;48.90;;;;;;;;;;5142453;27;20050;-65
2021/12/11 08:35:49;;;;;;;406.52;80.72;;;;;;;;;;5136480;27;20049;-65
2021/12/11 08:38:15;;;;;;;149.95;45.22;;;;;;;;;;5150859;27;20053;-65
2021/12/11 08:40:43;;;;;;;184.43;47.97;;;;;;;;;;5159805;27;20165;-64
2021/12/11 08:43:11;;;;;;;280.60;58.35;;;;;;;;;;5147249;27;20063;-64
2021/12/11 08:45:45;;;;;;;233.65;56.88;;;;;;;;;;5159439;27;20047;-66
2021/12/11 08:48:14;;;;;;;190.10;48.35;;;;;;;;;;5150464;27;20054;-66
2021/12/11 08:50:41;;;;;;;112.40;38.45;;;;;;;;;;5147868;27;20038;-66
2021/12/11 08:53:07;;;;;;;137.55;41.40;;;;;;;;;;5166323;27;20114;-65
2021/12/11 08:55:36;;;;;;;118.10;40.10;;;;;;;;;;5148588;27;20043;-66
2021/12/11 08:58:03;;;;;;;114.00;40.00;;;;;;;;;;5163512;27;20047;-65
2021/12/11 09:00:35;;;;;;;98.93;38.28;;;;;;;;;;5173633;27;20034;-66
2021/12/11 09:03:08;;;;;;;102.80;36.28;;;;;;;;;;5168430;27;20049;-65
2021/12/11 09:05:37;;;;;;;125.03;36.90;;;;;;;;;;5165740;27;20060;-67
2021/12/11 09:08:02;;;;;;;;;;;;;;;;;;5152535;27;20125;-66
2021/12/11 09:10:51;;;;;;;128.63;37.53;;;;;;;;;;5176326;27;19923;-66
2021/12/11 09:13:20;;;;;;;88.32;33.65;;;;;;;;;;5172208;27;20039;-66
2021/12/11 09:15:46;;;;;;;;;;;;;;;;;;5159394;27;20042;-66
2021/12/11 09:18:18;;;;;;;115.63;41.22;;;;;;;;;;5159882;27;19940;-65
2021/12/11 09:20:47;;;;;;;104.82;38.65;;;;;;;;;;5150680;27;20022;-65
2021/12/11 09:23:17;;;;;;;119.38;44.67;;;;;;;;;;5180591;27;20050;-65
2021/12/11 09:25:46;;;;;;;141.60;48.42;;;;;;;;;;5162805;27;20046;-67
2021/12/11 09:28:17;;;;;;;152.65;53.88;;;;;;;;;;5181218;27;20103;-65
2021/12/11 09:30:47;;;;;;;167.35;55.55;;;;;;;;;;5175669;27;20067;-65
2021/12/11 09:33:21;;;;;;;172.90;57.10;;;;;;;;;;5168728;27;20046;-65
2021/12/11 09:35:50;;;;;;;151.55;53.75;;;;;;;;;;5159915;27;20043;-67
2021/12/11 09:38:21;;;;;;;159.75;56.75;;;;;;;;;;5161083;27;20096;-66
2021/12/11 09:40:56;;;;;;;165.23;59.58;;;;;;;;;;5135490;27;20027;-67
2021/12/11 09:43:33;;;;;;;153.13;57.00;;;;;;;;;;5167514;27;20107;-68
2021/12/11 09:46:00;;;;;;;159.73;56.00;;;;;;;;;;5160166;27;20046;-67
2021/12/11 09:48:27;;;;;;;160.77;57.95;;;;;;;;;;5160809;27;20098;-68
2021/12/11 09:50:59;;;;;;;151.73;56.35;;;;;;;;;;5142623;27;20035;-68
2021/12/11 09:53:28;;;;;;;171.43;58.10;;;;;;;;;;5171782;27;20023;-67
2021/12/11 09:55:56;;;;;;;149.02;55.03;;;;;;;;;;5155271;27;20046;-69
2021/12/11 09:58:26;;;;;;;140.05;52.88;;;;;;;;;;5156358;27;20058;-66
2021/12/11 10:00:56;;;;;;;145.73;54.28;;;;;;;;;;5159799;27;20039;-69
2021/12/11 10:03:24;;;;;;;136.20;52.70;;;;;;;;;;5156457;27;20122;-68
2021/12/11 10:05:56;;;;;;;129.50;49.97;;;;;;;;;;5139328;28;20027;-66
2021/12/11 10:10:52;;;;;;;117.55;46.95;;;;;;;;;;5138619;28;20066;-67
2021/12/11 10:13:18;;;;;;;113.68;47.38;;;;;;;;;;5158043;27;20106;-67
2021/12/11 10:15:44;;;;;;;122.65;48.20;;;;;;;;;;5159047;27;20558;-68
2021/12/11 10:18:16;;;;;;;109.72;45.05;;;;;;;;;;5142554;27;20047;-68
2021/12/11 10:20:48;;;;;;;100.13;43.22;;;;;;;;;;5157559;27;20030;-68
2021/12/11 10:23:16;;;;;;;121.97;44.85;;;;;;;;;;5160269;27;20046;-69
2021/12/11 10:25:43;;;;;;;91.72;41.55;;;;;;;;;;5158247;27;20067;-68
2021/12/11 10:28:10;;;;;;;127.10;45.03;;;;;;;;;;5156947;27;20039;-69
2021/12/11 10:30:39;;;;;;;80.55;37.65;;;;;;;;;;5158489;27;20054;-68
2021/12/11 10:33:05;;;;;;;;;;;;;;;;;;5159629;27;20064;-68
2021/12/11 10:35:33;;;;;;;66.15;31.35;;;;;;;;;;5152083;27;19904;-67
2021/12/11 10:38:02;;;;;;;61.17;30.05;;;;;;;;;;5150767;27;20047;-68
2021/12/11 10:40:31;;;;;;;61.40;31.35;;;;;;;;;;5145014;27;20063;-69
2021/12/11 10:43:00;;;;;;;60.63;29.95;;;;;;;;;;5138669;28;20047;-68
2021/12/11 10:45:26;;;;;;;51.30;27.17;;;;;;;;;;5138681;28;20034;-69
2021/12/11 10:47:55;;;;;;;45.95;25.35;;;;;;;;;;5138383;28;20059;-70
2021/12/11 10:50:24;;;;;;;44.45;24.73;;;;;;;;;;5138531;28;20071;-69
2021/12/11 10:52:50;;;;;;;64.72;27.98;;;;;;;;;;5149681;27;20039;-69
2021/12/11 10:55:19;;;;;;;57.45;26.10;;;;;;;;;;5145603;28;20042;-70
2021/12/11 10:57:45;;;;;;;40.60;22.33;;;;;;;;;;5137736;28;20039;-69
2021/12/11 11:00:23;;;;;;;36.40;22.65;;;;;;;;;;5121105;28;20028;-69
2021/12/11 11:02:49;;;;;;;93.97;28.83;;;;;;;;;;5121557;28;20020;-69
2021/12/11 11:05:17;;;;;;;44.85;23.40;;;;;;;;;;5137890;28;20031;-69
2021/12/11 11:07:44;;;;;;;35.80;21.67;;;;;;;;;;5138236;28;20047;-69
2021/12/11 11:10:13;;;;;;;36.28;21.95;;;;;;;;;;5138542;28;20083;-70
2021/12/11 11:12:40;;;;;;;36.95;21.60;;;;;;;;;;5137729;27;20115;-69
2021/12/11 11:15:07;;;;;;;36.33;21.58;;;;;;;;;;5138538;28;20020;-68
2021/12/11 11:17:33;;;;;;;41.63;22.25;;;;;;;;;;5137427;28;20078;-69
2021/12/11 11:20:00;;;;;;;39.25;22.45;;;;;;;;;;5133957;28;20152;-68
2021/12/11 11:22:31;;;;;;;94.78;29.80;;;;;;;;;;5137662;28;20664;-70
2021/12/11 11:25:00;;;;;;;65.20;25.83;;;;;;;;;;5138935;28;20073;-70
2021/12/11 11:27:26;;;;;;;62.72;24.42;;;;;;;;;;5140677;28;20020;-71
2021/12/11 11:29:53;;;;;;;46.53;22.00;;;;;;;;;;5114768;28;20032;-71
2021/12/11 11:32:22;;;;;;;37.22;21.83;;;;;;;;;;5139514;28;20031;-70
2021/12/11 11:34:48;;;;;;;36.70;21.50;;;;;;;;;;5124184;28;20023;-70
2021/12/11 11:37:19;;;;;;;39.30;22.02;;;;;;;;;;5124374;28;20031;-70
2021/12/11 11:39:47;;;;;;;65.32;24.02;;;;;;;;;;5124804;28;20053;-69
2021/12/11 11:42:15;;;;;;;61.63;24.10;;;;;;;;;;5141202;28;20024;-71
2021/12/11 11:44:42;;;;;;;59.67;22.13;;;;;;;;;;5142600;28;20031;-69
2021/12/11 11:47:09;;;;;;;34.38;19.35;;;;;;;;;;5141679;28;20028;-70
2021/12/11 11:49:35;;;;;;;35.38;20.27;;;;;;;;;;5141585;28;20065;-70
2021/12/11 11:52:08;;;;;;;37.95;20.60;;;;;;;;;;5142384;28;20035;-69
2021/12/11 11:54:35;;;;;;;36.70;20.38;;;;;;;;;;5149421;27;20031;-70
2021/12/11 11:57:10;;;;;;;34.50;21.13;;;;;;;;;;5181073;27;20041;-70
2021/12/11 11:59:37;;;;;;;84.45;28.52;;;;;;;;;;5145602;27;20049;-69
2021/12/11 12:02:07;;;;;;;43.70;23.52;;;;;;;;;;5161765;27;20077;-71
2021/12/11 12:04:34;;;;;;;226.88;50.83;;;;;;;;;;5144536;27;20038;-70
2021/12/11 12:07:02;;;;;;;45.30;24.38;;;;;;;;;;5148524;27;20094;-70
2021/12/11 12:09:29;;;;;;;40.28;23.58;;;;;;;;;;5158961;27;20059;-70
2021/12/11 12:11:58;;;;;;;43.85;23.52;;;;;;;;;;5183623;27;20023;-70
2021/12/11 12:14:26;;;;;;;39.08;22.67;;;;;;;;;;5163542;27;20031;-72
2021/12/11 12:16:53;;;;;;;41.72;22.88;;;;;;;;;;5174510;27;20030;-67
2021/12/11 12:19:20;;;;;;;40.58;23.55;;;;;;;;;;5183368;27;20099;-68
2021/12/11 12:21:48;;;;;;;42.38;23.02;;;;;;;;;;5145002;27;20042;-68
2021/12/11 12:24:17;;;;;;;40.67;22.85;;;;;;;;;;5161988;27;20094;-71
2021/12/11 12:26:42;;;;;;;;;;;;;;;;;;5160593;27;20042;-71
2021/12/11 12:29:11;;;;;;;45.53;23.02;;;;;;;;;;5168146;27;19910;-71
2021/12/11 12:31:40;;;;;;;48.53;22.42;;;;;;;;;;5143828;27;20032;-70
2021/12/11 12:34:06;;;;;;;;;;;;;;;;;;5138133;27;20050;-70
2021/12/11 12:36:32;;;;;;;41.47;21.50;;;;;;;;;;5144059;27;19903;-70
2021/12/11 12:38:59;;;;;;;35.38;22.00;;;;;;;;;;5175324;27;20038;-71
2021/12/11 12:41:34;;;;;;;44.95;21.73;;;;;;;;;;5176364;27;20030;-70
2021/12/11 12:46:40;;;;;;;62.40;25.92;;;;;;;;;;5149691;27;20030;-70
2021/12/11 12:49:06;;;;;;;43.17;21.88;;;;;;;;;;5152221;27;20019;-69
2021/12/11 12:51:34;;;;;;;189.50;44.83;;;;;;;;;;5161033;27;20026;-70
2021/12/11 12:54:00;;;;;;;83.90;29.58;;;;;;;;;;5161847;27;20019;-70
2021/12/11 12:56:31;;;;;;;69.68;29.63;;;;;;;;;;5151570;27;20039;-70
2021/12/11 12:59:03;;;;;;;40.67;22.30;;;;;;;;;;5146418;27;20090;-71
2021/12/11 13:01:38;;;;;;;178.82;45.20;;;;;;;;;;5159470;27;20018;-70
2021/12/11 13:04:06;;;;;;;59.67;26.10;;;;;;;;;;5167616;27;20029;-70
2021/12/11 13:06:39;;;;;;;44.60;25.10;;;;;;;;;;5149357;27;20019;-69
2021/12/11 13:09:09;;;;;;;48.25;23.02;;;;;;;;;;5146680;27;20031;-69
2021/12/11 13:11:47;;;;;;;48.22;24.38;;;;;;;;;;5157199;27;20026;-70
2021/12/11 13:14:13;;;;;;;78.13;28.83;;;;;;;;;;5166307;27;20086;-69
2021/12/11 13:16:42;;;;;;;55.95;26.60;;;;;;;;;;5166237;27;20042;-69
2021/12/11 13:19:12;;;;;;;53.35;25.52;;;;;;;;;;5152554;27;20019;-70
2021/12/11 13:21:50;;;;;;;49.85;24.10;;;;;;;;;;5163014;27;20052;-69
2021/12/11 13:24:16;;;;;;;65.80;27.13;;;;;;;;;;5143114;27;20087;-69
2021/12/11 13:26:44;;;;;;;65.88;28.13;;;;;;;;;;5147174;27;20034;-70
2021/12/11 13:29:13;;;;;;;59.67;27.15;;;;;;;;;;5137754;27;20030;-71
2021/12/11 13:31:48;;;;;;;56.15;25.95;;;;;;;;;;5164120;27;20019;-68
2021/12/11 13:34:15;;;;;;;75.28;29.15;;;;;;;;;;5167021;27;20047;-70
2021/12/11 13:36:44;;;;;;;64.90;28.08;;;;;;;;;;5163137;27;20080;-71
2021/12/11 13:39:11;;;;;;;52.58;25.20;;;;;;;;;;5167882;27;20039;-70
2021/12/11 13:41:44;;;;;;;47.90;25.55;;;;;;;;;;5138978;27;20045;-71
2021/12/11 13:44:11;;;;;;;67.45;27.27;;;;;;;;;;5165765;27;20031;-69
2021/12/11 13:46:38;;;;;;;47.55;25.73;;;;;;;;;;5160446;27;20094;-68
2021/12/11 13:49:04;;;;;;;77.35;29.73;;;;;;;;;;5146607;27;20036;-66
2021/12/11 13:51:31;;;;;;;59.60;27.83;;;;;;;;;;5161360;27;20024;-66
2021/12/11 13:53:58;;;;;;;82.82;32.47;;;;;;;;;;5142232;27;20062;-69
2021/12/11 13:56:37;;;;;;;58.17;28.95;;;;;;;;;;5159900;27;20094;-68
2021/12/11 13:59:05;;;;;;;60.60;30.08;;;;;;;;;;5142193;27;20113;-69
2021/12/11 14:01:32;;;;;;;63.47;29.90;;;;;;;;;;5160073;27;20030;-68
2021/12/11 14:04:00;;;;;;;51.28;27.35;;;;;;;;;;5142182;27;20031;-69
2021/12/11 14:06:27;;;;;;;105.07;32.70;;;;;;;;;;5150976;27;20046;-68
2021/12/11 14:09:05;;;;;;;73.28;30.13;;;;;;;;;;5181123;27;20095;-69
2021/12/11 14:11:31;;;;;;;68.55;26.90;;;;;;;;;;5180342;27;20039;-69
2021/12/11 14:13:57;;;;;;;87.15;29.75;;;;;;;;;;5162162;27;20050;-69
2021/12/11 14:16:23;;;;;;;79.43;28.90;;;;;;;;;;5161702;27;20039;-72
2021/12/11 14:18:51;;;;;;;81.22;26.25;;;;;;;;;;5181038;27;20086;-69
2021/12/11 14:21:17;;;;;;;124.57;29.92;;;;;;;;;;5155956;27;20031;-70
2021/12/11 14:23:45;;;;;;;108.47;28.33;;;;;;;;;;5147989;27;20038;-72
2021/12/11 14:26:15;;;;;;;80.23;27.10;;;;;;;;;;5162396;27;20018;-70
2021/12/11 14:28:41;;;;;;;156.88;31.70;;;;;;;;;;5149614;27;20026;-68
2021/12/11 14:31:10;;;;;;;104.22;27.67;;;;;;;;;;5166054;27;20051;-69
2021/12/11 14:33:52;;;;;;;115.55;28.85;;;;;;;;;;5166380;27;20019;-69
2021/12/11 14:36:20;;;;;;;109.22;29.27;;;;;;;;;;5164188;27;20049;-67